Terminal Aerodrome Forecast
Issued by NWS Wilmington, OH

Home | Current Version | Previous Version | Text Only | Print | Product List | Glossary On
Versions: 1 2 3 4 5 6 7 8 9 10 11 12 13 14 15 16 17 18 19 20 21 22 23
000
FTUS41 KILN 281700
TAFCMH
TAF
KCMH 281739Z 2818/2918 VRB06KT P6SM SCT250
     FM291200 14008KT P6SM BKN060 OVC120
     FM291500 19011G20KT P6SM VCSH SCT025 OVC040
     FM291700 20013G21KT 4SM -RA BR SCT010 OVC025=

USA.gov is the U.S. government's official web portal to all federal, state and local government web resources and services.